createdAt,value
2023-05-22T00:00:24.626Z,25.00
2023-05-22T00:01:24.623Z,25.00
2023-05-22T00:02:24.714Z,25.00
2023-05-22T00:03:24.707Z,0.00
2023-05-22T00:04:24.592Z,0.00
2023-05-22T00:05:24.628Z,0.00
2023-05-22T00:06:24.641Z,0.00
2023-05-22T00:07:24.601Z,0.00
2023-05-22T00:08:24.712Z,5.35
2023-05-22T00:09:24.584Z,18.19
2023-05-22T00:10:24.590Z,25.00
2023-05-22T00:11:24.561Z,26.18
2023-05-22T00:12:24.556Z,25.00
2023-05-22T00:13:24.579Z,25.66
2023-05-22T00:14:24.533Z,25.11
2023-05-22T00:15:24.524Z,25.00
2023-05-22T00:16:24.535Z,25.00
2023-05-22T00:17:24.625Z,25.00
2023-05-22T00:18:24.506Z,26.49
2023-05-22T00:19:24.524Z,25.79
2023-05-22T00:20:24.484Z,24.70
2023-05-22T00:21:24.512Z,25.00
2023-05-22T00:22:24.581Z,25.00
2023-05-22T00:23:24.577Z,27.22
2023-05-22T00:24:24.597Z,25.50
2023-05-22T00:25:24.609Z,25.57
2023-05-22T00:26:24.643Z,25.00
2023-05-22T00:27:24.673Z,26.81
2023-05-22T00:28:24.697Z,25.00
2023-05-22T00:29:24.728Z,25.00
2023-05-22T00:30:24.715Z,25.77
2023-05-22T00:31:24.776Z,25.55
2023-05-22T00:32:24.825Z,25.57
2023-05-22T00:33:24.788Z,26.59
2023-05-22T00:34:24.848Z,27.09
2023-05-22T00:35:24.836Z,28.09
2023-05-22T00:36:24.864Z,26.65
2023-05-22T00:37:24.906Z,25.51
2023-05-22T00:38:24.902Z,26.49
2023-05-22T00:39:24.931Z,27.79
2023-05-22T00:40:24.949Z,26.39
2023-05-22T00:41:24.967Z,25.61
2023-05-22T00:42:25.007Z,26.32
2023-05-22T00:43:25.028Z,27.26
2023-05-22T00:44:25.066Z,27.57
2023-05-22T00:45:25.200Z,27.07
2023-05-22T00:46:25.134Z,25.95
2023-05-22T00:47:25.147Z,26.28
2023-05-22T00:48:25.145Z,27.35
2023-05-22T00:49:25.153Z,28.01
2023-05-22T00:50:25.178Z,25.00
2023-05-22T00:51:25.214Z,27.16
2023-05-22T00:52:25.225Z,25.98
2023-05-22T00:53:25.271Z,26.15
2023-05-22T00:54:25.279Z,26.99
2023-05-22T00:55:25.303Z,25.93
2023-05-22T00:56:25.321Z,27.62
2023-05-22T00:57:25.359Z,26.74
2023-05-22T00:58:25.384Z,26.78
2023-05-22T00:59:25.409Z,26.76
2023-05-22T01:00:25.444Z,27.04
2023-05-22T01:01:25.513Z,27.43
2023-05-22T01:02:25.485Z,27.02
2023-05-22T01:03:25.620Z,28.06
2023-05-22T01:04:25.535Z,27.52
2023-05-22T01:05:25.567Z,25.44
2023-05-22T01:06:25.600Z,25.98
2023-05-22T01:07:25.630Z,28.68
2023-05-22T01:08:25.677Z,26.68
2023-05-22T01:09:25.693Z,28.74
2023-05-22T01:10:25.724Z,25.85
2023-05-22T01:11:25.761Z,27.09
2023-05-22T01:12:25.783Z,25.76
2023-05-22T01:13:25.820Z,27.20
2023-05-22T01:14:25.943Z,26.83
2023-05-22T01:15:25.965Z,25.62
2023-05-22T01:16:25.970Z,27.06
2023-05-22T01:17:25.978Z,26.08
2023-05-22T01:18:26.029Z,27.95
2023-05-22T01:19:26.057Z,27.59
2023-05-22T01:20:26.035Z,25.26
2023-05-22T01:21:26.033Z,28.00
2023-05-22T01:22:26.062Z,25.60
2023-05-22T01:23:26.086Z,28.08
2023-05-22T01:24:26.238Z,25.82
2023-05-22T01:25:26.136Z,27.03
2023-05-22T01:26:26.179Z,27.03
2023-05-22T01:27:26.356Z,25.00
2023-05-22T01:28:26.245Z,25.85
2023-05-22T01:29:26.286Z,27.86
2023-05-22T01:30:26.310Z,27.59
2023-05-22T01:31:26.451Z,25.50
2023-05-22T01:32:26.423Z,27.77
2023-05-22T01:33:26.623Z,27.58
2023-05-22T01:34:26.425Z,26.45
2023-05-22T01:35:26.456Z,26.30
2023-05-22T01:36:26.496Z,26.59
2023-05-22T01:37:26.540Z,27.45
2023-05-22T01:38:26.555Z,28.48
2023-05-22T01:39:26.604Z,25.21
2023-05-22T01:40:26.626Z,26.21
2023-05-22T01:41:26.666Z,25.56
2023-05-22T01:42:26.690Z,26.78
2023-05-22T01:43:26.728Z,26.81
2023-05-22T01:44:26.766Z,29.51
2023-05-22T01:45:26.803Z,27.90
2023-05-22T01:46:26.895Z,26.61
2023-05-22T01:47:26.920Z,26.09
2023-05-22T01:48:26.906Z,27.75
2023-05-22T01:49:26.965Z,26.72
2023-05-22T01:50:26.973Z,27.49
2023-05-22T01:51:26.997Z,27.54
2023-05-22T01:52:27.034Z,27.14
2023-05-22T01:53:27.050Z,28.94
2023-05-22T01:54:27.089Z,26.30
2023-05-22T01:55:27.133Z,25.19
2023-05-22T01:56:27.180Z,27.84
2023-05-22T01:57:27.184Z,25.14
2023-05-22T01:58:27.213Z,29.16
2023-05-22T01:59:27.246Z,28.61
2023-05-22T02:00:27.272Z,29.21
2023-05-22T02:01:27.397Z,28.22
2023-05-22T02:02:27.401Z,29.71
2023-05-22T02:03:27.479Z,27.73
2023-05-22T02:04:27.401Z,25.00
2023-05-22T02:05:27.491Z,27.94
2023-05-22T02:06:27.484Z,28.28
2023-05-22T02:07:27.521Z,26.30
2023-05-22T02:08:27.567Z,26.05
2023-05-22T02:09:27.586Z,27.41
2023-05-22T02:10:27.640Z,26.36
2023-05-22T02:11:27.640Z,25.00
2023-05-22T02:12:27.670Z,25.63
2023-05-22T02:13:27.700Z,26.16
2023-05-22T02:14:27.732Z,27.65
2023-05-22T02:15:27.806Z,28.28
2023-05-22T02:16:27.805Z,27.99
2023-05-22T02:17:27.886Z,28.67
2023-05-22T02:18:27.860Z,28.22
2023-05-22T02:19:27.959Z,29.75
2023-05-22T02:20:27.933Z,28.19
2023-05-22T02:21:27.998Z,29.08
2023-05-22T02:22:28.013Z,27.71
2023-05-22T02:23:28.033Z,26.74
2023-05-22T02:24:28.056Z,28.00
2023-05-22T02:25:28.095Z,28.14
2023-05-22T02:26:28.130Z,27.79
2023-05-22T02:27:28.157Z,28.06
2023-05-22T02:28:28.204Z,28.15
2023-05-22T02:29:28.225Z,26.04
2023-05-22T02:30:28.255Z,26.01
2023-05-22T02:31:28.324Z,27.29
2023-05-22T02:32:28.425Z,27.61
2023-05-22T02:33:28.379Z,28.23
2023-05-22T02:34:28.410Z,27.35
2023-05-22T02:35:28.422Z,27.55
2023-05-22T02:36:28.466Z,26.92
2023-05-22T02:37:28.529Z,25.80
2023-05-22T02:38:28.534Z,26.41
2023-05-22T02:39:28.565Z,28.08
2023-05-22T02:40:28.584Z,25.15
2023-05-22T02:41:28.627Z,27.85
2023-05-22T02:42:28.661Z,28.87
2023-05-22T02:43:28.689Z,26.93
2023-05-22T02:44:28.730Z,25.72
2023-05-22T02:45:28.770Z,27.02
2023-05-22T02:46:28.808Z,28.96
2023-05-22T02:47:28.868Z,27.17
2023-05-22T02:48:28.926Z,27.60
2023-05-22T02:49:28.916Z,27.09
2023-05-22T02:50:28.963Z,26.68
2023-05-22T02:51:28.997Z,28.34
2023-05-22T02:52:29.031Z,27.91
2023-05-22T02:53:29.087Z,27.38
2023-05-22T02:54:29.101Z,26.42
2023-05-22T02:55:29.147Z,26.18
2023-05-22T02:56:29.167Z,25.00
2023-05-22T02:57:29.226Z,27.21
2023-05-22T02:58:29.233Z,26.94
2023-05-22T02:59:29.269Z,28.34
2023-05-22T03:00:29.314Z,28.82
2023-05-22T03:01:29.384Z,26.36
2023-05-22T03:02:29.459Z,26.04
2023-05-22T03:03:29.533Z,27.94
2023-05-22T03:04:29.473Z,27.18
2023-05-22T03:05:29.529Z,27.05
2023-05-22T03:06:29.548Z,28.08
2023-05-22T03:07:29.738Z,28.00
2023-05-22T03:08:29.617Z,25.29
2023-05-22T03:09:29.666Z,26.77
2023-05-22T03:10:29.685Z,28.99
2023-05-22T03:11:29.722Z,28.04
2023-05-22T03:12:29.751Z,28.32
2023-05-22T03:13:29.820Z,28.89
2023-05-22T03:14:29.816Z,27.77
2023-05-22T03:15:29.869Z,26.63
2023-05-22T03:16:29.980Z,28.46
2023-05-22T03:17:29.966Z,27.64
2023-05-22T03:18:29.985Z,27.32
2023-05-22T03:19:30.064Z,28.05
2023-05-22T03:20:30.045Z,26.31
2023-05-22T03:21:30.086Z,25.98
2023-05-22T03:22:30.142Z,28.52
2023-05-22T03:23:30.167Z,29.21
2023-05-22T03:24:30.206Z,29.20
2023-05-22T03:25:30.273Z,28.10
2023-05-22T03:26:30.304Z,29.83
2023-05-22T03:27:30.314Z,26.69
2023-05-22T03:28:30.472Z,28.81
2023-05-22T03:29:30.410Z,28.35
2023-05-22T03:30:30.436Z,29.93
2023-05-22T03:31:30.467Z,28.19
2023-05-22T03:32:30.552Z,27.00
2023-05-22T03:33:30.584Z,28.14
2023-05-22T03:34:30.594Z,28.44
2023-05-22T03:35:30.634Z,28.85
2023-05-22T03:36:32.499Z,26.76
2023-05-22T03:37:30.676Z,27.20
2023-05-22T03:38:30.659Z,32.17
2023-05-22T03:39:30.646Z,27.59
2023-05-22T03:40:30.631Z,25.00
2023-05-22T03:41:30.660Z,28.71
2023-05-22T03:42:30.629Z,28.63
2023-05-22T03:43:30.618Z,28.66
2023-05-22T03:44:30.621Z,25.54
2023-05-22T03:45:30.635Z,25.00
2023-05-22T03:46:30.610Z,26.24
2023-05-22T03:47:30.626Z,27.95
2023-05-22T03:48:30.651Z,28.13
2023-05-22T03:49:30.582Z,29.38
2023-05-22T03:50:30.572Z,28.17
2023-05-22T03:51:30.568Z,27.36
2023-05-22T03:52:30.570Z,27.58
2023-05-22T03:53:30.550Z,27.74
2023-05-22T03:54:30.546Z,28.32
2023-05-22T03:55:30.537Z,27.74
2023-05-22T03:56:30.532Z,27.88
2023-05-22T03:57:30.554Z,27.70
2023-05-22T03:58:30.515Z,26.80
2023-05-22T03:59:30.518Z,28.31
2023-05-22T04:00:30.493Z,27.02
2023-05-22T04:01:30.514Z,29.34
2023-05-22T04:02:30.621Z,26.23
2023-05-22T04:03:30.561Z,29.59
2023-05-22T04:04:30.493Z,25.36
2023-05-22T04:05:30.678Z,28.08
2023-05-22T04:06:30.466Z,25.74
2023-05-22T04:07:30.445Z,27.03
2023-05-22T04:08:30.441Z,27.40
2023-05-22T04:09:30.435Z,29.46
2023-05-22T04:10:30.415Z,26.35
2023-05-22T04:11:30.493Z,28.81
2023-05-22T04:12:30.468Z,27.59
2023-05-22T04:13:30.528Z,29.13
2023-05-22T04:14:30.543Z,26.84
2023-05-22T04:15:30.581Z,26.41
2023-05-22T04:16:30.663Z,28.18
2023-05-22T04:17:30.696Z,26.14
2023-05-22T04:18:30.698Z,27.32
2023-05-22T04:19:30.774Z,25.56
2023-05-22T04:20:30.775Z,27.07
2023-05-22T04:21:30.800Z,25.73
2023-05-22T04:22:30.841Z,26.65
2023-05-22T04:23:30.870Z,25.99
2023-05-22T04:24:30.893Z,25.10
2023-05-22T04:25:30.934Z,27.29
2023-05-22T04:26:30.967Z,25.32
2023-05-22T04:27:31.006Z,27.44
2023-05-22T04:28:31.048Z,25.49
2023-05-22T04:29:31.102Z,25.00
2023-05-22T04:30:31.098Z,26.81
2023-05-22T04:31:31.165Z,26.67
2023-05-22T04:32:31.187Z,27.20
2023-05-22T04:33:31.205Z,26.65
2023-05-22T04:34:31.243Z,29.84
2023-05-22T04:35:31.284Z,28.05
2023-05-22T04:36:31.317Z,29.13
2023-05-22T04:37:31.340Z,29.41
2023-05-22T04:38:31.381Z,30.39
2023-05-22T04:39:31.412Z,26.63
2023-05-22T04:40:31.462Z,29.30
2023-05-22T04:41:31.501Z,27.56
2023-05-22T04:42:31.547Z,29.35
2023-05-22T04:43:31.576Z,29.41
2023-05-22T04:44:31.612Z,29.06
2023-05-22T04:45:31.689Z,28.15
2023-05-22T04:46:31.757Z,27.61
2023-05-22T04:47:31.954Z,28.77
2023-05-22T04:48:31.767Z,27.24
2023-05-22T04:49:31.807Z,29.09
2023-05-22T04:50:31.845Z,29.80
2023-05-22T04:51:31.900Z,29.05
2023-05-22T04:52:31.931Z,30.57
2023-05-22T04:53:31.963Z,28.29
2023-05-22T04:54:32.017Z,28.29
2023-05-22T04:55:32.076Z,28.09
2023-05-22T04:56:36.738Z,27.81
2023-05-22T04:57:32.090Z,28.15
2023-05-22T04:58:32.069Z,29.05
2023-05-22T04:59:32.062Z,29.40
2023-05-22T05:00:32.109Z,31.06
2023-05-22T05:01:33.309Z,29.83
2023-05-22T05:02:32.211Z,35.22
2023-05-22T05:03:32.274Z,28.84
2023-05-22T05:04:32.269Z,28.21
2023-05-22T05:05:32.308Z,25.99
2023-05-22T05:06:32.346Z,27.04
2023-05-22T05:07:32.381Z,27.00
2023-05-22T05:08:32.407Z,25.31
2023-05-22T05:09:32.463Z,26.24
2023-05-22T05:10:32.484Z,25.53
2023-05-22T05:11:32.539Z,27.38
2023-05-22T05:12:32.563Z,26.29
2023-05-22T05:13:32.596Z,28.23
2023-05-22T05:14:32.954Z,26.75
2023-05-22T05:15:32.705Z,27.54
2023-05-22T05:16:32.737Z,28.08
2023-05-22T05:17:32.815Z,26.35
2023-05-22T05:18:32.788Z,28.85
2023-05-22T05:19:34.721Z,27.70
2023-05-22T05:20:32.829Z,27.83
2023-05-22T05:21:32.815Z,28.62
2023-05-22T05:22:32.831Z,29.52
2023-05-22T05:23:32.814Z,29.49
2023-05-22T05:24:32.851Z,31.33
2023-05-22T05:25:32.789Z,30.53
2023-05-22T05:26:32.781Z,30.99
2023-05-22T05:27:32.967Z,31.58
2023-05-22T05:28:32.767Z,31.94
2023-05-22T05:29:32.768Z,31.33
2023-05-22T05:30:32.752Z,31.64
2023-05-22T05:31:33.028Z,31.11
2023-05-22T05:32:32.759Z,33.32
2023-05-22T05:33:32.858Z,33.31
2023-05-22T05:34:32.741Z,35.94
2023-05-22T05:35:32.969Z,34.18
2023-05-22T05:36:32.752Z,35.82
2023-05-22T05:37:32.745Z,35.43
2023-05-22T05:38:32.704Z,35.90
2023-05-22T05:39:32.706Z,37.45
2023-05-22T05:40:32.701Z,38.93
2023-05-22T05:41:32.693Z,36.68
2023-05-22T05:42:32.680Z,38.16
2023-05-22T05:43:32.711Z,39.76
2023-05-22T05:44:32.972Z,40.34
2023-05-22T05:45:32.665Z,41.80
2023-05-22T05:46:32.677Z,42.70
2023-05-22T05:47:40.463Z,44.63
2023-05-22T05:48:32.675Z,44.99
2023-05-22T05:49:35.642Z,45.61
2023-05-22T05:50:32.640Z,45.19
2023-05-22T05:51:32.634Z,46.15
2023-05-22T05:52:32.984Z,48.04
2023-05-22T05:53:32.627Z,55.59
2023-05-22T05:54:32.622Z,65.59
2023-05-22T05:55:40.104Z,68.17
2023-05-22T05:56:32.974Z,68.56
2023-05-22T05:57:35.807Z,70.85
2023-05-22T05:58:32.580Z,68.95
2023-05-22T05:59:32.573Z,70.05
2023-05-22T06:00:40.293Z,72.13
2023-05-22T06:01:40.441Z,68.99
2023-05-22T06:02:35.807Z,69.33
2023-05-22T06:04:04.466Z,69.37
2023-05-22T06:04:46.851Z,69.40
2023-05-22T06:06:04.371Z,69.87
2023-05-22T06:06:32.519Z,70.11
2023-05-22T06:08:04.348Z,74.49
2023-05-22T06:08:35.738Z,69.71
2023-05-22T06:10:37.119Z,69.66
2023-05-22T06:11:48.350Z,69.91
2023-05-22T06:12:48.295Z,69.70
2023-05-22T06:13:32.714Z,69.84
2023-05-22T06:14:32.701Z,74.25
2023-05-22T06:15:40.444Z,79.69
2023-05-22T06:16:33.428Z,69.45
2023-05-22T06:17:32.887Z,69.60
2023-05-22T06:18:32.782Z,72.62
2023-05-22T06:19:32.873Z,78.12
2023-05-22T06:20:33.880Z,83.17
2023-05-22T06:21:32.643Z,89.15
2023-05-22T06:22:32.986Z,87.60
2023-05-22T06:23:32.628Z,88.48
2023-05-22T06:24:32.649Z,89.26
2023-05-22T06:25:32.632Z,86.16
2023-05-22T06:26:32.662Z,88.91
2023-05-22T06:27:32.658Z,86.62
2023-05-22T06:28:32.669Z,86.77
2023-05-22T06:29:32.709Z,85.89
2023-05-22T06:30:40.230Z,85.43
2023-05-22T06:31:32.719Z,85.86
2023-05-22T06:32:33.229Z,86.60
2023-05-22T06:33:32.804Z,87.75
2023-05-22T06:34:32.913Z,88.24
2023-05-22T06:35:33.695Z,88.24
2023-05-22T06:36:32.749Z,88.15
2023-05-22T06:37:33.198Z,86.18
2023-05-22T06:38:32.672Z,87.35
2023-05-22T06:39:40.076Z,87.00
2023-05-22T06:40:32.686Z,87.42
2023-05-22T06:41:32.658Z,87.84
2023-05-22T06:42:32.830Z,87.96
2023-05-22T06:43:32.778Z,88.08
2023-05-22T06:44:33.683Z,88.10
2023-05-22T06:45:32.647Z,90.44
2023-05-22T06:46:32.708Z,87.17
2023-05-22T06:47:33.084Z,84.14
2023-05-22T06:48:32.614Z,85.35
2023-05-22T06:49:32.985Z,83.88
2023-05-22T06:50:32.605Z,84.04
2023-05-22T06:51:32.606Z,85.35
2023-05-22T06:52:33.057Z,83.39
2023-05-22T06:53:32.572Z,86.54
2023-05-22T06:54:32.572Z,84.71
2023-05-22T06:55:32.577Z,84.61
2023-05-22T06:56:32.562Z,84.48
2023-05-22T06:57:33.530Z,84.03
2023-05-22T06:58:32.569Z,84.80
2023-05-22T06:59:32.786Z,84.21
2023-05-22T07:00:36.596Z,80.84
2023-05-22T07:01:32.893Z,81.23
2023-05-22T07:02:33.125Z,81.80
2023-05-22T07:03:32.620Z,82.15
2023-05-22T07:04:32.577Z,82.96
2023-05-22T07:05:32.602Z,84.97
2023-05-22T07:06:32.564Z,83.83
2023-05-22T07:07:32.631Z,83.82
2023-05-22T07:08:32.648Z,83.49
2023-05-22T07:09:32.782Z,82.94
2023-05-22T07:10:32.609Z,83.30
2023-05-22T07:11:33.031Z,80.86
2023-05-22T07:12:32.647Z,84.75
2023-05-22T07:13:33.009Z,80.84
2023-05-22T07:14:33.517Z,80.81
2023-05-22T07:15:32.500Z,80.93
2023-05-22T07:16:32.547Z,81.48
2023-05-22T07:17:33.029Z,80.08
2023-05-22T07:18:32.558Z,81.98
2023-05-22T07:19:32.633Z,79.78
2023-05-22T07:20:32.605Z,80.67
2023-05-22T07:21:32.633Z,80.07
2023-05-22T07:22:32.657Z,81.63
2023-05-22T07:23:33.010Z,81.03
2023-05-22T07:24:32.723Z,78.68
2023-05-22T07:25:32.708Z,80.25
2023-05-22T07:26:31.748Z,80.71
2023-05-22T07:27:32.781Z,79.18
2023-05-22T07:28:33.014Z,78.59
2023-05-22T07:29:36.024Z,80.78
2023-05-22T07:30:32.818Z,80.91
2023-05-22T07:31:36.013Z,80.92
2023-05-22T07:32:32.851Z,81.15
2023-05-22T07:33:33.037Z,81.29
2023-05-22T07:34:32.830Z,81.17
2023-05-22T07:35:35.998Z,81.12
2023-05-22T07:36:32.821Z,81.19
2023-05-22T07:37:35.964Z,81.48
2023-05-22T07:38:33.020Z,81.32
2023-05-22T07:39:32.765Z,82.64
2023-05-22T07:40:48.407Z,84.77
2023-05-22T07:41:35.952Z,81.52
2023-05-22T07:42:32.747Z,81.90
2023-05-22T07:43:33.035Z,84.11
2023-05-22T07:44:32.749Z,87.79
2023-05-22T07:45:32.725Z,94.63
2023-05-22T07:47:48.660Z,82.05
2023-05-22T07:48:40.093Z,82.59
2023-05-22T07:49:33.028Z,82.85
2023-05-22T07:50:32.669Z,89.61
2023-05-22T07:51:35.863Z,99.05
2023-05-22T07:52:32.681Z,82.88
2023-05-22T07:53:32.644Z,89.72
2023-05-22T07:54:33.369Z,101.36
2023-05-22T07:56:04.450Z,121.06
2023-05-22T07:57:32.622Z,83.70
2023-05-22T07:58:33.044Z,93.65
2023-05-22T07:59:32.610Z,109.87
2023-05-22T08:00:32.636Z,134.18
2023-05-22T08:01:32.586Z,166.70
2023-05-22T08:02:33.044Z,172.09
2023-05-22T08:03:33.178Z,176.69
2023-05-22T08:04:32.652Z,176.18
2023-05-22T08:05:33.025Z,175.01
2023-05-22T08:06:32.559Z,181.31
2023-05-22T08:07:32.580Z,187.40
2023-05-22T08:08:33.164Z,192.42
2023-05-22T08:09:32.540Z,193.59
2023-05-22T08:10:46.455Z,189.84
2023-05-22T08:11:32.643Z,190.50
2023-05-22T08:12:36.217Z,193.25
2023-05-22T08:13:39.942Z,190.72
2023-05-22T08:14:32.547Z,191.17
2023-05-22T08:15:32.506Z,195.44
2023-05-22T08:16:32.568Z,202.32
2023-05-22T08:17:32.562Z,211.13
2023-05-22T08:18:32.490Z,221.73
2023-05-22T08:19:32.641Z,230.30
2023-05-22T08:20:32.501Z,226.19
2023-05-22T08:21:32.473Z,238.68
2023-05-22T08:22:32.461Z,237.82
2023-05-22T08:23:32.544Z,243.19
2023-05-22T08:24:32.447Z,238.72
2023-05-22T08:25:32.465Z,248.95
2023-05-22T08:26:32.421Z,240.44
2023-05-22T08:27:32.495Z,250.00
2023-05-22T08:28:32.521Z,250.00
2023-05-22T08:29:32.397Z,243.55
2023-05-22T08:30:32.385Z,243.66
2023-05-22T08:31:32.465Z,248.91
2023-05-22T08:32:32.586Z,246.78
2023-05-22T08:33:32.371Z,239.96
2023-05-22T08:34:32.536Z,250.00
2023-05-22T08:35:32.382Z,245.02
2023-05-22T08:36:32.386Z,248.63
2023-05-22T08:37:32.450Z,249.24
2023-05-22T08:38:32.525Z,243.12
2023-05-22T08:39:33.033Z,250.00
2023-05-22T08:40:32.612Z,243.70
2023-05-22T08:41:32.659Z,248.84
2023-05-22T08:42:40.140Z,246.31
2023-05-22T08:43:32.743Z,246.52
2023-05-22T08:44:33.067Z,248.01
2023-05-22T08:45:32.702Z,248.41
2023-05-22T08:46:32.710Z,249.00
2023-05-22T08:47:33.073Z,253.31
2023-05-22T08:48:32.677Z,246.03
2023-05-22T08:49:32.671Z,245.08
2023-05-22T08:50:32.673Z,245.55
2023-05-22T08:51:32.648Z,245.10
2023-05-22T08:52:33.049Z,250.00
2023-05-22T08:53:32.659Z,248.29
2023-05-22T08:54:32.625Z,250.00
2023-05-22T08:55:32.613Z,246.55
2023-05-22T08:56:33.521Z,243.01
2023-05-22T08:57:40.518Z,243.37
2023-05-22T08:58:32.774Z,243.85
2023-05-22T08:59:32.588Z,245.29
2023-05-22T09:00:32.573Z,249.99
2023-05-22T09:01:32.649Z,256.00
2023-05-22T09:02:33.104Z,258.70
2023-05-22T09:03:33.340Z,247.15
2023-05-22T09:04:32.602Z,246.21
2023-05-22T09:05:32.544Z,244.90
2023-05-22T09:06:32.542Z,244.46
2023-05-22T09:07:35.733Z,247.71
2023-05-22T09:08:32.530Z,247.82
2023-05-22T09:09:32.563Z,248.37
2023-05-22T09:10:32.508Z,248.84
2023-05-22T09:11:32.560Z,250.19
2023-05-22T09:12:32.504Z,249.93
2023-05-22T09:13:32.495Z,248.68
2023-05-22T09:14:32.511Z,248.97
2023-05-22T09:15:32.502Z,245.22
2023-05-22T09:16:32.537Z,245.49
2023-05-22T09:17:32.514Z,247.26
2023-05-22T09:18:32.555Z,249.11
2023-05-22T09:19:32.568Z,247.44
2023-05-22T09:20:32.552Z,249.51
2023-05-22T09:21:32.465Z,248.95
2023-05-22T09:22:32.559Z,250.67
2023-05-22T09:23:32.423Z,246.10
2023-05-22T09:24:32.422Z,245.70
2023-05-22T09:25:32.700Z,244.38
2023-05-22T09:26:32.512Z,247.05
2023-05-22T09:27:33.053Z,244.47
2023-05-22T09:28:39.966Z,245.59
2023-05-22T09:29:32.416Z,245.74
2023-05-22T09:30:32.511Z,246.16
2023-05-22T09:31:32.437Z,246.40
2023-05-22T09:32:32.421Z,246.89
2023-05-22T09:33:33.592Z,240.33
2023-05-22T09:34:32.374Z,247.88
2023-05-22T09:35:33.552Z,242.85
2023-05-22T09:36:33.386Z,247.38
2023-05-22T09:37:32.349Z,248.73
2023-05-22T09:38:32.357Z,249.58
2023-05-22T09:39:32.403Z,250.00
2023-05-22T09:40:32.555Z,248.83
2023-05-22T09:41:32.549Z,245.57
2023-05-22T09:42:36.273Z,246.41
2023-05-22T09:43:32.744Z,246.58
2023-05-22T09:44:32.554Z,247.37
2023-05-22T09:46:32.640Z,246.73
2023-05-22T09:47:32.655Z,248.36
2023-05-22T09:48:33.522Z,247.87
2023-05-22T09:49:32.502Z,248.59
2023-05-22T09:50:32.506Z,251.56
2023-05-22T09:51:32.495Z,250.00
2023-05-22T09:52:32.510Z,247.41
2023-05-22T09:53:32.569Z,247.39
2023-05-22T09:54:32.564Z,246.63
2023-05-22T09:55:32.485Z,245.51
2023-05-22T09:56:39.162Z,247.86
2023-05-22T09:57:32.452Z,248.08
2023-05-22T09:58:32.455Z,248.82
2023-05-22T09:59:32.438Z,249.17
2023-05-22T10:00:32.420Z,251.21
2023-05-22T10:01:32.474Z,251.09
2023-05-22T10:02:32.533Z,247.75
2023-05-22T10:03:32.565Z,246.89
2023-05-22T10:04:32.481Z,246.64
2023-05-22T10:05:32.428Z,249.96
2023-05-22T10:06:32.389Z,248.42
2023-05-22T10:07:32.388Z,249.64
2023-05-22T10:08:32.573Z,248.82
2023-05-22T10:09:32.366Z,246.34
2023-05-22T10:10:32.367Z,246.51
2023-05-22T10:11:32.370Z,249.24
2023-05-22T10:12:32.348Z,246.24
2023-05-22T10:13:32.566Z,245.54
2023-05-22T10:14:32.660Z,244.96
2023-05-22T10:15:32.333Z,243.54
2023-05-22T10:16:32.414Z,247.58
2023-05-22T10:17:32.376Z,250.81
2023-05-22T10:18:32.694Z,246.23
2023-05-22T10:19:32.391Z,247.20
2023-05-22T10:20:32.296Z,248.02
2023-05-22T10:21:32.294Z,244.73
2023-05-22T10:22:32.283Z,243.89
2023-05-22T10:23:32.578Z,243.47
2023-05-22T10:24:32.574Z,242.54
2023-05-22T10:25:32.263Z,243.98
2023-05-22T10:26:32.254Z,241.94
2023-05-22T10:27:32.242Z,243.45
2023-05-22T10:28:32.573Z,244.61
2023-05-22T10:29:32.235Z,241.98
2023-05-22T10:30:32.296Z,241.78
2023-05-22T10:31:32.302Z,242.83
2023-05-22T10:32:32.628Z,240.49
2023-05-22T10:33:32.480Z,237.47
2023-05-22T10:34:32.621Z,243.70
2023-05-22T10:35:32.544Z,243.73
2023-05-22T10:36:32.606Z,241.76
2023-05-22T10:37:32.653Z,240.86
2023-05-22T10:38:33.082Z,242.20
2023-05-22T10:39:32.774Z,240.66
2023-05-22T10:40:33.095Z,238.67
2023-05-22T10:41:32.895Z,243.34
2023-05-22T10:42:34.117Z,238.36
2023-05-22T10:43:33.055Z,235.35
2023-05-22T10:44:33.066Z,239.69
2023-05-22T10:45:33.345Z,234.99
2023-05-22T10:46:33.253Z,236.46
2023-05-22T10:47:33.375Z,236.61
2023-05-22T10:48:33.306Z,236.10
2023-05-22T10:49:33.393Z,238.44
2023-05-22T10:50:33.553Z,236.09
2023-05-22T10:51:34.511Z,234.36
2023-05-22T10:52:33.596Z,233.05
2023-05-22T10:53:34.086Z,234.46
2023-05-22T10:54:33.844Z,234.64
2023-05-22T10:55:34.736Z,233.67
2023-05-22T10:56:33.793Z,235.82
2023-05-22T10:57:33.854Z,234.56
2023-05-22T10:58:34.093Z,233.32
2023-05-22T10:59:33.983Z,235.89
2023-05-22T11:00:34.050Z,235.29
2023-05-22T11:01:34.134Z,233.95
2023-05-22T11:03:17.170Z,231.95
2023-05-22T11:03:34.199Z,232.20
2023-05-22T11:04:34.192Z,232.31
2023-05-22T11:06:34.284Z,232.09
2023-05-22T11:07:34.131Z,232.93
2023-05-22T11:08:34.609Z,232.72
2023-05-22T11:09:34.116Z,233.53
2023-05-22T11:10:34.120Z,234.10
2023-05-22T11:11:34.126Z,231.92
2023-05-22T11:12:34.098Z,233.12
2023-05-22T11:13:34.630Z,228.07
2023-05-22T11:14:34.110Z,233.10
2023-05-22T11:15:34.078Z,231.42
2023-05-22T11:16:34.146Z,229.50
2023-05-22T11:17:34.106Z,229.54
2023-05-22T11:18:34.064Z,228.30
2023-05-22T11:19:34.140Z,230.66
2023-05-22T11:20:34.040Z,225.47
2023-05-22T11:21:34.043Z,229.58
2023-05-22T11:22:34.166Z,229.01
2023-05-22T11:23:34.104Z,225.56
2023-05-22T11:24:34.626Z,227.68
2023-05-22T11:25:34.161Z,225.69
2023-05-22T11:26:34.225Z,230.05
2023-05-22T11:27:35.314Z,231.42
2023-05-22T11:28:34.357Z,231.20
2023-05-22T11:29:34.602Z,230.41
2023-05-22T11:30:34.469Z,225.63
2023-05-22T11:31:34.596Z,224.79
2023-05-22T11:32:34.610Z,223.65
2023-05-22T11:33:35.112Z,225.29
2023-05-22T11:34:34.771Z,225.72
2023-05-22T11:35:35.793Z,226.39
2023-05-22T11:36:34.888Z,226.14
2023-05-22T11:37:34.908Z,223.49
2023-05-22T11:38:35.106Z,224.52
2023-05-22T11:39:35.068Z,225.42
2023-05-22T11:40:35.091Z,224.19
2023-05-22T11:41:35.220Z,226.42
2023-05-22T11:42:35.238Z,225.39
2023-05-22T11:43:35.609Z,222.62
2023-05-22T11:44:35.365Z,223.85
2023-05-22T11:45:35.407Z,226.22
2023-05-22T11:46:35.504Z,226.60
2023-05-22T11:47:35.627Z,222.51
2023-05-22T11:48:35.628Z,221.78
2023-05-22T11:49:35.670Z,222.04
2023-05-22T11:50:42.164Z,225.59
2023-05-22T11:51:35.742Z,225.67
2023-05-22T11:52:35.692Z,225.73
2023-05-22T11:53:35.766Z,226.02
2023-05-22T11:54:38.481Z,225.59
2023-05-22T11:55:35.686Z,225.79
2023-05-22T11:56:35.663Z,225.66
2023-05-22T11:57:35.649Z,225.51
2023-05-22T11:58:36.109Z,222.57
2023-05-22T11:59:35.649Z,220.50
2023-05-22T12:00:35.737Z,220.87
2023-05-22T12:01:35.620Z,219.30
2023-05-22T12:02:35.920Z,223.56
2023-05-22T12:03:35.708Z,219.39
2023-05-22T12:04:35.625Z,217.60
2023-05-22T12:05:35.593Z,213.55
2023-05-22T12:06:35.608Z,216.44
2023-05-22T12:07:35.587Z,224.18
2023-05-22T12:08:35.623Z,220.88
2023-05-22T12:09:35.556Z,218.79
2023-05-22T12:10:35.736Z,216.59
2023-05-22T12:11:35.554Z,220.58
2023-05-22T12:12:35.618Z,220.07
2023-05-22T12:13:35.556Z,221.49
2023-05-22T12:14:35.532Z,217.63
2023-05-22T12:15:35.588Z,220.97
2023-05-22T12:16:35.709Z,217.64
2023-05-22T12:17:35.750Z,217.18
2023-05-22T12:18:36.120Z,219.45
2023-05-22T12:19:35.946Z,219.32
2023-05-22T12:20:35.929Z,215.49
2023-05-22T12:21:35.930Z,223.53
2023-05-22T12:22:35.984Z,216.89
2023-05-22T12:23:36.048Z,222.69
2023-05-22T12:24:36.104Z,219.90
2023-05-22T12:25:36.168Z,221.00
2023-05-22T12:26:36.356Z,222.23
2023-05-22T12:27:37.989Z,219.69
2023-05-22T12:28:36.290Z,223.06
2023-05-22T12:29:36.286Z,222.44
2023-05-22T12:30:36.310Z,223.42
2023-05-22T12:31:36.360Z,220.58
2023-05-22T12:32:36.307Z,223.17
2023-05-22T12:33:36.616Z,222.36
2023-05-22T12:34:36.250Z,222.14
2023-05-22T12:35:36.232Z,222.34
2023-05-22T12:36:36.220Z,220.68
2023-05-22T12:37:36.212Z,223.48
2023-05-22T12:38:36.620Z,220.84
2023-05-22T12:39:36.210Z,219.03
2023-05-22T12:40:36.194Z,225.56
2023-05-22T12:41:36.183Z,222.14
2023-05-22T12:42:36.299Z,222.35
2023-05-22T12:43:36.173Z,222.93
2023-05-22T12:44:36.159Z,228.05
2023-05-22T12:45:36.161Z,224.71
2023-05-22T12:46:36.189Z,223.10
2023-05-22T12:47:36.185Z,220.01
2023-05-22T12:48:36.628Z,220.51